Time,TemperatureF,DewpointF,PressureIn,WindDirection,WindDirectionDegrees,WindSpeedMPH,WindSpeedGustMPH,Humidity,HourlyPrecipIn,Conditions,Clouds,dailyrainin,SoftwareType,DateUTC
2013-02-21 00:03:00,26.4,6.3,29.94,SE,135,0.0,0.0,42,0.00,,,0.00,WUHU21623XXSP,2013-02-21 08:03:00,
2013-02-21 00:13:00,25.5,5.5,29.94,SE,135,0.0,0.0,42,0.00,,,0.00,WUHU21623XXSP,2013-02-21 08:13:00,
2013-02-21 00:20:00,25.3,5.4,29.94,ESE,112,0.0,0.0,42,0.00,,,0.00,WUHU21623XXSP,2013-02-21 08:20:00,
2013-02-21 00:32:00,24.6,5.2,29.94,ESE,112,0.0,0.0,43,0.00,,,0.00,WUHU21623XXSP,2013-02-21 08:32:00,
2013-02-21 00:54:00,24.6,5.7,29.93,SE,135,0.0,0.0,44,0.00,,,0.00,WUHU21623XXSP,2013-02-21 08:54:00,
2013-02-21 00:59:00,24.6,5.7,29.93,SE,135,0.0,0.0,44,0.00,,,0.00,WUHU21623XXSP,2013-02-21 08:59:00,
2013-02-21 01:04:00,24.6,5.7,29.93,SE,135,0.0,0.0,44,0.00,,,0.00,WUHU21623XXSP,2013-02-21 09:04:00,
2013-02-21 01:20:00,25.0,6.5,29.94,NNW,337,0.0,0.0,45,0.00,,,0.00,WUHU21623XXSP,2013-02-21 09:20:00,
2013-02-21 01:25:00,25.0,6.5,29.93,NNE,22,0.0,0.0,45,0.00,,,0.00,WUHU21623XXSP,2013-02-21 09:25:00,
2013-02-21 02:24:00,25.0,9.4,29.95,NW,315,0.0,0.0,51,0.00,,,0.00,WUHU21623XXSP,2013-02-21 10:24:00,
2013-02-21 02:41:00,25.9,10.2,29.95,NW,315,3.1,3.1,51,0.00,,,0.00,WUHU21623XXSP,2013-02-21 10:41:00,
2013-02-21 02:58:00,27.1,11.4,29.95,North,0,2.7,2.7,51,0.00,,,0.00,WUHU21623XXSP,2013-02-21 10:58:00,
2013-02-21 03:03:00,27.1,11.4,29.95,North,0,2.7,2.7,51,0.00,,,0.00,WUHU21623XXSP,2013-02-21 11:03:00,
2013-02-21 03:41:00,28.6,11.9,29.95,NW,315,1.6,1.6,49,0.00,,,0.00,WUHU21623XXSP,2013-02-21 11:41:00,
2013-02-21 03:47:00,28.8,12.0,29.95,North,0,2.0,2.0,49,0.00,,,0.00,WUHU21623XXSP,2013-02-21 11:47:00,
2013-02-21 03:58:00,28.8,12.0,29.96,NW,315,4.7,4.7,49,0.00,,,0.00,WUHU21623XXSP,2013-02-21 11:58:00,
2013-02-21 04:03:00,28.8,12.0,29.96,NW,315,4.7,4.7,49,0.00,,,0.00,WUHU21623XXSP,2013-02-21 12:03:00,
2013-02-21 04:24:00,28.9,12.2,29.98,NNW,337,2.5,2.5,49,0.00,,,0.00,WUHU21623XXSP,2013-02-21 12:24:00,
2013-02-21 05:41:00,28.2,15.7,30.01,SSE,157,0.0,0.0,59,0.00,,,0.00,WUHU21623XXSP,2013-02-21 13:41:00,
2013-02-21 06:11:00,27.7,14.8,30.01,South,180,0.0,0.0,58,0.00,,,0.00,WUHU21623XXSP,2013-02-21 14:11:00,
2013-02-21 06:16:00,27.7,14.8,30.02,SSE,157,0.0,0.0,58,0.00,,,0.00,WUHU21623XXSP,2013-02-21 14:16:00,
2013-02-21 06:24:00,27.3,14.4,30.02,SSE,157,0.0,0.0,58,0.00,,,0.00,WUHU21623XXSP,2013-02-21 14:24:00,
2013-02-21 06:36:00,26.8,13.9,30.02,NNE,22,0.0,0.0,58,0.00,,,0.00,WUHU21623XXSP,2013-02-21 14:36:00,
2013-02-21 06:43:00,26.4,13.6,30.03,ENE,67,0.0,0.0,58,0.00,,,0.00,WUHU21623XXSP,2013-02-21 14:43:00,
2013-02-21 07:09:00,25.2,12.8,30.02,SE,135,0.0,0.0,59,0.00,,,0.00,WUHU21623XXSP,2013-02-21 15:09:00,
2013-02-21 07:14:00,25.0,12.7,30.02,East,90,0.0,0.0,59,0.00,,,0.00,WUHU21623XXSP,2013-02-21 15:14:00,
2013-02-21 07:20:00,24.6,12.7,30.02,North,0,0.0,0.0,60,0.00,,,0.00,WUHU21623XXSP,2013-02-21 15:20:00,
2013-02-21 07:28:00,24.6,12.7,30.02,SE,135,0.0,0.0,60,0.00,,,0.00,WUHU21623XXSP,2013-02-21 15:28:00,
2013-02-21 07:45:00,25.0,13.4,30.04,NE,45,0.0,0.0,61,0.00,,,0.00,WUHU21623XXSP,2013-02-21 15:45:00,
2013-02-21 08:06:00,27.1,16.5,30.06,ESE,112,0.0,0.0,64,0.00,,,0.00,WUHU21623XXSP,2013-02-21 16:06:00,
2013-02-21 08:32:00,30.9,20.1,30.05,NNE,22,0.0,0.0,64,0.00,,,0.00,WUHU21623XXSP,2013-02-21 16:32:00,
2013-02-21 08:37:00,31.6,20.8,30.06,North,0,0.0,0.0,64,0.00,,,0.00,WUHU21623XXSP,2013-02-21 16:37:00,
2013-02-21 09:00:00,34.7,22.3,30.08,WNW,292,1.8,1.8,60,0.00,,,0.00,WUHU21623XXSP,2013-02-21 17:00:00,
2013-02-21 09:26:00,36.1,21.5,30.08,NNW,337,4.9,4.9,55,0.00,,,0.00,WUHU21623XXSP,2013-02-21 17:26:00,
2013-02-21 09:43:00,36.0,19.2,30.09,NNW,337,5.1,5.1,50,0.00,,,0.00,WUHU21623XXSP,2013-02-21 17:43:00,
2013-02-21 09:58:00,36.0,18.7,30.09,NW,315,2.7,2.7,49,0.00,,,0.00,WUHU21623XXSP,2013-02-21 17:58:00,
2013-02-21 10:19:00,37.2,18.1,30.09,WNW,292,0.0,0.0,47,0.00,,,0.00,WUHU21623XXSP,2013-02-21 18:19:00,
2013-02-21 10:26:00,37.4,18.9,30.09,NW,315,0.0,0.0,47,0.00,,,0.00,WUHU21623XXSP,2013-02-21 18:26:00,
2013-02-21 10:34:00,38.1,19.0,30.09,NW,315,8.3,8.3,46,0.00,,,0.00,WUHU21623XXSP,2013-02-21 18:34:00,
2013-02-21 10:45:00,38.8,19.2,30.09,NW,315,7.2,7.2,45,0.00,,,0.00,WUHU21623XXSP,2013-02-21 18:45:00,
2013-02-21 11:13:00,39.0,18.3,30.09,NW,315,4.0,4.0,43,0.00,,,0.00,WUHU21623XXSP,2013-02-21 19:13:00,
2013-02-21 12:10:00,44.4,19.6,30.06,NNW,337,6.3,6.3,36,0.00,,,0.00,WUHU21623XXSP,2013-02-21 20:10:00,
2013-02-21 12:19:00,44.4,18.9,30.06,WNW,292,5.4,6.3,36,0.00,,,0.00,WUHU21623XXSP,2013-02-21 20:19:00,
2013-02-21 14:04:00,48.0,20.2,30.04,SSW,202,4.0,4.0,33,0.00,,,0.00,WUHU21623XXSP,2013-02-21 22:04:00,
2013-02-21 14:11:00,48.4,20.5,30.04,SSE,157,4.3,4.3,33,0.00,,,0.00,WUHU21623XXSP,2013-02-21 22:11:00,
2013-02-21 16:44:00,42.1,14.8,30.05,NW,315,0.0,0.0,33,0.00,,,0.00,WUHU21623XXSP,2013-02-22 00:44:00,
2013-02-21 16:56:00,41.7,14.6,30.05,WNW,292,0.0,0.0,33,0.00,,,0.00,WUHU21623XXSP,2013-02-22 00:56:00,
2013-02-21 17:33:00,40.1,11.9,30.05,North,0,0.0,0.0,31,0.00,,,0.00,WUHU21623XXSP,2013-02-22 01:33:00,
2013-02-21 17:48:00,39.0,10.2,30.05,NW,315,0.0,0.0,30,0.00,,,0.00,WUHU21623XXSP,2013-02-22 01:48:00,
2013-02-21 18:42:00,35.8,8.6,30.06,ESE,112,0.0,0.0,32,0.00,,,0.00,WUHU21623XXSP,2013-02-22 02:42:00,
2013-02-21 19:11:00,33.4,7.3,30.07,ESE,112,0.0,0.0,33,0.00,,,0.00,WUHU21623XXSP,2013-02-22 03:11:00,
2013-02-21 19:16:00,32.9,6.8,30.07,ESE,112,0.0,0.0,33,0.00,,,0.00,WUHU21623XXSP,2013-02-22 03:16:00,
2013-02-21 20:03:00,29.8,4.7,30.08,North,0,0.0,0.0,34,0.00,,,0.00,WUHU21623XXSP,2013-02-22 04:03:00,
2013-02-21 21:01:00,27.3,3.0,30.10,NNW,337,0.0,0.0,35,0.00,,,0.00,WUHU21623XXSP,2013-02-22 05:01:00,
2013-02-21 21:02:00,27.3,3.0,30.10,NNW,337,0.0,0.0,35,0.00,,,0.00,WUHU21623XXSP,2013-02-22 05:02:00,
2013-02-21 22:58:00,23.7,1.7,30.12,West,270,0.0,0.0,38,0.00,,,0.00,WUHU21623XXSP,2013-02-22 06:58:00,
2013-02-21 23:03:00,23.7,1.7,30.12,West,270,0.0,0.0,38,0.00,,,0.00,WUHU21623XXSP,2013-02-22 07:03:00,
2013-02-21 23:15:00,23.4,1.4,30.12,SSE,157,0.0,0.0,38,0.00,,,0.00,WUHU21623XXSP,2013-02-22 07:15:00,
2013-02-21 23:58:00,21.9,0.7,30.13,ENE,67,0.0,0.0,39,0.00,,,0.00,WUHU21623XXSP,2013-02-22 07:58:00,